sensor_id;sensor_type;location;lat;lon;timestamp;temperature;humidity
13433;DHT22;6789;47.678;9.158;2023-03-07T00:00:51;4.50;99.90
13433;DHT22;6789;47.678;9.158;2023-03-07T00:05:43;4.50;99.90
13433;DHT22;6789;47.678;9.158;2023-03-07T00:10:35;4.50;99.90
13433;DHT22;6789;47.678;9.158;2023-03-07T00:15:27;4.50;99.90
13433;DHT22;6789;47.678;9.158;2023-03-07T00:20:26;4.60;99.90
13433;DHT22;6789;47.678;9.158;2023-03-07T00:25:18;4.60;99.90
13433;DHT22;6789;47.678;9.158;2023-03-07T00:30:10;4.50;99.90
13433;DHT22;6789;47.678;9.158;2023-03-07T00:35:05;4.40;99.90
13433;DHT22;6789;47.678;9.158;2023-03-07T00:39:57;4.40;99.90
13433;DHT22;6789;47.678;9.158;2023-03-07T00:44:49;4.40;99.90
13433;DHT22;6789;47.678;9.158;2023-03-07T00:49:41;4.40;99.90
13433;DHT22;6789;47.678;9.158;2023-03-07T00:54:32;4.40;99.90
13433;DHT22;6789;47.678;9.158;2023-03-07T00:59:24;4.40;99.90
13433;DHT22;6789;47.678;9.158;2023-03-07T01:04:16;4.40;99.90
13433;DHT22;6789;47.678;9.158;2023-03-07T01:09:08;4.40;99.90
13433;DHT22;6789;47.678;9.158;2023-03-07T01:14:02;4.40;99.90
13433;DHT22;6789;47.678;9.158;2023-03-07T01:19:01;4.40;99.90
13433;DHT22;6789;47.678;9.158;2023-03-07T01:23:55;4.40;99.90
13433;DHT22;6789;47.678;9.158;2023-03-07T01:28:50;4.30;99.90
13433;DHT22;6789;47.678;9.158;2023-03-07T01:33:42;4.30;99.90
13433;DHT22;6789;47.678;9.158;2023-03-07T01:38:34;4.20;99.90
13433;DHT22;6789;47.678;9.158;2023-03-07T01:43:30;4.20;99.90
13433;DHT22;6789;47.678;9.158;2023-03-07T01:48:23;4.20;99.90
13433;DHT22;6789;47.678;9.158;2023-03-07T01:53:16;4.20;99.90
13433;DHT22;6789;47.678;9.158;2023-03-07T01:58:22;4.30;99.90
13433;DHT22;6789;47.678;9.158;2023-03-07T02:03:50;4.30;99.90
13433;DHT22;6789;47.678;9.158;2023-03-07T02:08:59;4.20;99.90
13433;DHT22;6789;47.678;9.158;2023-03-07T02:14:09;4.20;99.90
13433;DHT22;6789;47.678;9.158;2023-03-07T02:19:46;4.20;99.90
13433;DHT22;6789;47.678;9.158;2023-03-07T02:30:27;4.20;99.90
13433;DHT22;6789;47.678;9.158;2023-03-07T02:35:33;4.20;99.90
13433;DHT22;6789;47.678;9.158;2023-03-07T02:40:40;4.10;99.90
13433;DHT22;6789;47.678;9.158;2023-03-07T02:45:33;4.20;99.90
13433;DHT22;6789;47.678;9.158;2023-03-07T02:50:27;4.10;99.90
13433;DHT22;6789;47.678;9.158;2023-03-07T02:55:19;4.10;99.90
13433;DHT22;6789;47.678;9.158;2023-03-07T03:00:11;4.10;99.90
13433;DHT22;6789;47.678;9.158;2023-03-07T03:05:05;4.10;99.90
13433;DHT22;6789;47.678;9.158;2023-03-07T03:09:57;4.10;99.90
13433;DHT22;6789;47.678;9.158;2023-03-07T03:14:48;4.00;99.90
13433;DHT22;6789;47.678;9.158;2023-03-07T03:19:40;4.00;99.90
13433;DHT22;6789;47.678;9.158;2023-03-07T03:24:32;4.00;99.90
13433;DHT22;6789;47.678;9.158;2023-03-07T03:29:24;4.00;99.90
13433;DHT22;6789;47.678;9.158;2023-03-07T03:34:16;4.10;99.90
13433;DHT22;6789;47.678;9.158;2023-03-07T03:39:08;4.00;99.90
13433;DHT22;6789;47.678;9.158;2023-03-07T03:44:01;4.00;99.90
13433;DHT22;6789;47.678;9.158;2023-03-07T03:48:54;4.10;99.90
13433;DHT22;6789;47.678;9.158;2023-03-07T03:53:46;4.10;99.90
13433;DHT22;6789;47.678;9.158;2023-03-07T03:58:38;4.00;99.90
13433;DHT22;6789;47.678;9.158;2023-03-07T04:03:36;4.00;99.90
13433;DHT22;6789;47.678;9.158;2023-03-07T04:08:33;4.00;99.90
13433;DHT22;6789;47.678;9.158;2023-03-07T04:13:26;4.00;99.90
13433;DHT22;6789;47.678;9.158;2023-03-07T04:18:18;4.00;99.90
13433;DHT22;6789;47.678;9.158;2023-03-07T04:23:10;4.00;99.90
13433;DHT22;6789;47.678;9.158;2023-03-07T04:28:02;4.00;99.90
13433;DHT22;6789;47.678;9.158;2023-03-07T04:32:55;4.00;99.90
13433;DHT22;6789;47.678;9.158;2023-03-07T04:38:01;3.90;99.90
13433;DHT22;6789;47.678;9.158;2023-03-07T04:43:07;3.90;99.90
13433;DHT22;6789;47.678;9.158;2023-03-07T04:48:13;3.90;99.90
13433;DHT22;6789;47.678;9.158;2023-03-07T04:53:19;3.90;99.90
13433;DHT22;6789;47.678;9.158;2023-03-07T04:58:26;3.90;99.90
13433;DHT22;6789;47.678;9.158;2023-03-07T05:03:33;3.90;99.90
13433;DHT22;6789;47.678;9.158;2023-03-07T05:08:26;3.80;99.90
13433;DHT22;6789;47.678;9.158;2023-03-07T05:13:20;3.90;99.90
13433;DHT22;6789;47.678;9.158;2023-03-07T05:18:13;3.90;99.90
13433;DHT22;6789;47.678;9.158;2023-03-07T05:23:05;3.90;99.90
13433;DHT22;6789;47.678;9.158;2023-03-07T05:27:59;3.90;99.90
13433;DHT22;6789;47.678;9.158;2023-03-07T05:32:51;3.90;99.90
13433;DHT22;6789;47.678;9.158;2023-03-07T05:37:44;4.00;99.90
13433;DHT22;6789;47.678;9.158;2023-03-07T05:42:49;3.90;99.90
13433;DHT22;6789;47.678;9.158;2023-03-07T05:47:42;3.90;99.90
13433;DHT22;6789;47.678;9.158;2023-03-07T05:52:36;3.90;99.90
13433;DHT22;6789;47.678;9.158;2023-03-07T05:57:42;3.90;99.90
13433;DHT22;6789;47.678;9.158;2023-03-07T06:02:35;3.80;99.90
13433;DHT22;6789;47.678;9.158;2023-03-07T06:07:41;3.90;99.90
13433;DHT22;6789;47.678;9.158;2023-03-07T06:12:34;3.90;99.90
13433;DHT22;6789;47.678;9.158;2023-03-07T06:17:31;3.90;99.90
13433;DHT22;6789;47.678;9.158;2023-03-07T06:22:23;4.00;99.90
13433;DHT22;6789;47.678;9.158;2023-03-07T06:27:19;4.10;99.90
13433;DHT22;6789;47.678;9.158;2023-03-07T06:32:13;4.10;99.90
13433;DHT22;6789;47.678;9.158;2023-03-07T06:37:06;4.10;99.90
13433;DHT22;6789;47.678;9.158;2023-03-07T06:41:58;4.20;99.90
13433;DHT22;6789;47.678;9.158;2023-03-07T06:47:04;4.20;99.90
13433;DHT22;6789;47.678;9.158;2023-03-07T06:51:57;4.40;99.90
13433;DHT22;6789;47.678;9.158;2023-03-07T06:56:49;4.50;99.90
13433;DHT22;6789;47.678;9.158;2023-03-07T07:01:56;4.60;99.90
13433;DHT22;6789;47.678;9.158;2023-03-07T07:06:52;4.80;99.90
13433;DHT22;6789;47.678;9.158;2023-03-07T07:11:45;4.90;99.90
13433;DHT22;6789;47.678;9.158;2023-03-07T07:16:41;5.00;99.90
13433;DHT22;6789;47.678;9.158;2023-03-07T07:21:41;5.10;99.90
13433;DHT22;6789;47.678;9.158;2023-03-07T07:26:41;5.20;99.90
13433;DHT22;6789;47.678;9.158;2023-03-07T07:31:47;5.20;99.90
13433;DHT22;6789;47.678;9.158;2023-03-07T07:36:43;5.30;99.90
13433;DHT22;6789;47.678;9.158;2023-03-07T07:41:49;5.30;99.90
13433;DHT22;6789;47.678;9.158;2023-03-07T07:46:56;5.50;99.90
13433;DHT22;6789;47.678;9.158;2023-03-07T07:52:03;5.50;99.90
13433;DHT22;6789;47.678;9.158;2023-03-07T07:57:09;5.60;99.90
13433;DHT22;6789;47.678;9.158;2023-03-07T08:02:14;5.70;99.90
13433;DHT22;6789;47.678;9.158;2023-03-07T08:07:09;5.90;99.90
13433;DHT22;6789;47.678;9.158;2023-03-07T08:12:19;6.10;99.90
13433;DHT22;6789;47.678;9.158;2023-03-07T08:17:18;6.20;99.90
13433;DHT22;6789;47.678;9.158;2023-03-07T08:28:32;6.30;99.90
13433;DHT22;6789;47.678;9.158;2023-03-07T08:33:31;6.50;99.90
13433;DHT22;6789;47.678;9.158;2023-03-07T08:38:40;6.70;99.90
13433;DHT22;6789;47.678;9.158;2023-03-07T08:43:46;6.80;99.90
13433;DHT22;6789;47.678;9.158;2023-03-07T08:48:52;6.80;99.90
13433;DHT22;6789;47.678;9.158;2023-03-07T08:53:45;7.00;99.90
13433;DHT22;6789;47.678;9.158;2023-03-07T08:58:54;7.00;99.90
13433;DHT22;6789;47.678;9.158;2023-03-07T09:04:02;7.00;99.90
13433;DHT22;6789;47.678;9.158;2023-03-07T09:09:09;7.00;99.90
13433;DHT22;6789;47.678;9.158;2023-03-07T09:14:02;6.80;99.90
13433;DHT22;6789;47.678;9.158;2023-03-07T09:18:56;6.90;99.90
13433;DHT22;6789;47.678;9.158;2023-03-07T09:24:04;7.00;99.90
13433;DHT22;6789;47.678;9.158;2023-03-07T09:29:11;7.10;99.90
13433;DHT22;6789;47.678;9.158;2023-03-07T09:34:05;7.20;99.90
13433;DHT22;6789;47.678;9.158;2023-03-07T09:39:22;7.40;99.90
13433;DHT22;6789;47.678;9.158;2023-03-07T09:50:22;7.50;99.90
13433;DHT22;6789;47.678;9.158;2023-03-07T09:55:39;7.30;99.90
13433;DHT22;6789;47.678;9.158;2023-03-07T10:00:46;7.40;99.90
13433;DHT22;6789;47.678;9.158;2023-03-07T10:06:25;7.80;99.90
13433;DHT22;6789;47.678;9.158;2023-03-07T10:11:55;7.90;99.90
13433;DHT22;6789;47.678;9.158;2023-03-07T10:17:32;8.00;99.90
13433;DHT22;6789;47.678;9.158;2023-03-07T10:28:18;8.10;99.90
13433;DHT22;6789;47.678;9.158;2023-03-07T10:33:59;8.00;99.90
13433;DHT22;6789;47.678;9.158;2023-03-07T10:39:47;7.60;99.90
13433;DHT22;6789;47.678;9.158;2023-03-07T10:44:49;7.70;99.90
13433;DHT22;6789;47.678;9.158;2023-03-07T10:55:44;7.90;99.90
13433;DHT22;6789;47.678;9.158;2023-03-07T11:01:01;7.90;99.90
13433;DHT22;6789;47.678;9.158;2023-03-07T11:06:34;7.90;99.90
13433;DHT22;6789;47.678;9.158;2023-03-07T11:22:32;7.70;99.90
13433;DHT22;6789;47.678;9.158;2023-03-07T11:27:58;7.80;99.90
13433;DHT22;6789;47.678;9.158;2023-03-07T11:33:18;8.00;99.90
13433;DHT22;6789;47.678;9.158;2023-03-07T11:44:59;7.90;99.90
13433;DHT22;6789;47.678;9.158;2023-03-07T11:50:54;7.90;99.90
13433;DHT22;6789;47.678;9.158;2023-03-07T12:19:26;8.40;99.90
13433;DHT22;6789;47.678;9.158;2023-03-07T12:30:22;8.30;99.90
13433;DHT22;6789;47.678;9.158;2023-03-07T12:35:41;8.40;99.90
13433;DHT22;6789;47.678;9.158;2023-03-07T12:41:18;8.60;99.90
13433;DHT22;6789;47.678;9.158;2023-03-07T12:46:50;8.60;99.90
13433;DHT22;6789;47.678;9.158;2023-03-07T12:57:41;8.90;99.90
13433;DHT22;6789;47.678;9.158;2023-03-07T13:03:08;9.10;99.90
13433;DHT22;6789;47.678;9.158;2023-03-07T13:08:47;9.00;99.90
13433;DHT22;6789;47.678;9.158;2023-03-07T13:14:15;9.10;99.90
13433;DHT22;6789;47.678;9.158;2023-03-07T13:26:26;8.80;99.90
13433;DHT22;6789;47.678;9.158;2023-03-07T13:31:39;9.00;99.90
13433;DHT22;6789;47.678;9.158;2023-03-07T13:36:51;9.10;99.90
13433;DHT22;6789;47.678;9.158;2023-03-07T13:42:45;9.20;99.90
13433;DHT22;6789;47.678;9.158;2023-03-07T13:47:43;9.30;99.90
13433;DHT22;6789;47.678;9.158;2023-03-07T13:52:49;9.20;99.90
13433;DHT22;6789;47.678;9.158;2023-03-07T13:57:57;9.20;99.90
13433;DHT22;6789;47.678;9.158;2023-03-07T14:03:34;9.30;99.90
13433;DHT22;6789;47.678;9.158;2023-03-07T14:08:44;9.50;99.90
13433;DHT22;6789;47.678;9.158;2023-03-07T14:19:35;9.20;99.90
13433;DHT22;6789;47.678;9.158;2023-03-07T14:30:14;9.10;99.90
13433;DHT22;6789;47.678;9.158;2023-03-07T14:35:55;9.00;99.90
13433;DHT22;6789;47.678;9.158;2023-03-07T14:51:56;8.90;99.90
13433;DHT22;6789;47.678;9.158;2023-03-07T14:57:03;9.10;99.90
13433;DHT22;6789;47.678;9.158;2023-03-07T15:02:17;9.20;99.90
13433;DHT22;6789;47.678;9.158;2023-03-07T15:07:23;9.10;99.90
13433;DHT22;6789;47.678;9.158;2023-03-07T15:12:39;9.00;99.90
13433;DHT22;6789;47.678;9.158;2023-03-07T15:17:56;8.80;99.90
13433;DHT22;6789;47.678;9.158;2023-03-07T15:23:18;8.80;99.90
13433;DHT22;6789;47.678;9.158;2023-03-07T15:28:31;8.70;99.90
13433;DHT22;6789;47.678;9.158;2023-03-07T15:33:52;8.70;99.90
13433;DHT22;6789;47.678;9.158;2023-03-07T15:44:37;8.50;99.90
13433;DHT22;6789;47.678;9.158;2023-03-07T15:49:46;8.30;99.90
13433;DHT22;6789;47.678;9.158;2023-03-07T15:55:17;8.40;99.90
13433;DHT22;6789;47.678;9.158;2023-03-07T16:00:31;8.30;99.90
13433;DHT22;6789;47.678;9.158;2023-03-07T16:05:39;8.10;99.90
13433;DHT22;6789;47.678;9.158;2023-03-07T16:11:01;7.80;99.90
13433;DHT22;6789;47.678;9.158;2023-03-07T16:21:18;7.80;99.90
13433;DHT22;6789;47.678;9.158;2023-03-07T16:26:25;7.70;99.90
13433;DHT22;6789;47.678;9.158;2023-03-07T16:31:33;7.60;99.90
13433;DHT22;6789;47.678;9.158;2023-03-07T16:36:39;7.70;99.90
13433;DHT22;6789;47.678;9.158;2023-03-07T16:41:48;7.50;99.90
13433;DHT22;6789;47.678;9.158;2023-03-07T16:52:18;7.20;99.90
13433;DHT22;6789;47.678;9.158;2023-03-07T16:57:28;7.20;99.90
13433;DHT22;6789;47.678;9.158;2023-03-07T17:02:35;7.10;99.90
13433;DHT22;6789;47.678;9.158;2023-03-07T17:07:41;7.00;99.90
13433;DHT22;6789;47.678;9.158;2023-03-07T17:12:47;7.00;99.90
13433;DHT22;6789;47.678;9.158;2023-03-07T17:17:59;6.90;99.90
13433;DHT22;6789;47.678;9.158;2023-03-07T17:23:05;6.80;99.90
13433;DHT22;6789;47.678;9.158;2023-03-07T17:28:13;6.80;99.90
13433;DHT22;6789;47.678;9.158;2023-03-07T17:33:19;6.60;99.90
13433;DHT22;6789;47.678;9.158;2023-03-07T17:38:26;6.50;99.90
13433;DHT22;6789;47.678;9.158;2023-03-07T17:43:31;6.40;99.90
13433;DHT22;6789;47.678;9.158;2023-03-07T17:48:41;6.40;99.90
13433;DHT22;6789;47.678;9.158;2023-03-07T17:53:47;6.30;99.90
13433;DHT22;6789;47.678;9.158;2023-03-07T17:58:53;6.30;99.90
13433;DHT22;6789;47.678;9.158;2023-03-07T18:03:48;6.30;99.90
13433;DHT22;6789;47.678;9.158;2023-03-07T18:08:56;6.30;99.90
13433;DHT22;6789;47.678;9.158;2023-03-07T18:14:02;6.30;99.90
13433;DHT22;6789;47.678;9.158;2023-03-07T18:19:17;6.40;99.90
13433;DHT22;6789;47.678;9.158;2023-03-07T18:24:26;6.40;99.90
13433;DHT22;6789;47.678;9.158;2023-03-07T18:29:34;6.40;99.90
13433;DHT22;6789;47.678;9.158;2023-03-07T18:34:40;6.40;99.90
13433;DHT22;6789;47.678;9.158;2023-03-07T18:39:46;6.30;99.90
13433;DHT22;6789;47.678;9.158;2023-03-07T18:44:52;6.20;99.90
13433;DHT22;6789;47.678;9.158;2023-03-07T18:49:59;6.20;99.90
13433;DHT22;6789;47.678;9.158;2023-03-07T18:55:07;6.20;99.90
13433;DHT22;6789;47.678;9.158;2023-03-07T19:00:14;6.20;99.90
13433;DHT22;6789;47.678;9.158;2023-03-07T19:05:21;6.20;99.90
13433;DHT22;6789;47.678;9.158;2023-03-07T19:10:50;6.30;99.90
13433;DHT22;6789;47.678;9.158;2023-03-07T19:16:06;6.20;99.90
13433;DHT22;6789;47.678;9.158;2023-03-07T19:21:19;6.20;99.90
13433;DHT22;6789;47.678;9.158;2023-03-07T19:26:18;6.20;99.90
13433;DHT22;6789;47.678;9.158;2023-03-07T19:31:27;6.10;99.90
13433;DHT22;6789;47.678;9.158;2023-03-07T19:36:34;6.10;99.90
13433;DHT22;6789;47.678;9.158;2023-03-07T19:41:41;6.00;99.90
13433;DHT22;6789;47.678;9.158;2023-03-07T19:46:52;6.00;99.90
13433;DHT22;6789;47.678;9.158;2023-03-07T19:52:00;6.00;99.90
13433;DHT22;6789;47.678;9.158;2023-03-07T19:57:08;6.00;99.90
13433;DHT22;6789;47.678;9.158;2023-03-07T20:02:17;5.90;99.90
13433;DHT22;6789;47.678;9.158;2023-03-07T20:07:24;5.90;99.90
13433;DHT22;6789;47.678;9.158;2023-03-07T20:12:32;5.90;99.90
13433;DHT22;6789;47.678;9.158;2023-03-07T20:17:38;5.90;99.90
13433;DHT22;6789;47.678;9.158;2023-03-07T20:22:45;5.90;99.90
13433;DHT22;6789;47.678;9.158;2023-03-07T20:27:52;5.80;99.90
13433;DHT22;6789;47.678;9.158;2023-03-07T20:32:58;5.80;99.90
13433;DHT22;6789;47.678;9.158;2023-03-07T20:38:07;5.80;99.90
13433;DHT22;6789;47.678;9.158;2023-03-07T20:43:13;5.80;99.90
13433;DHT22;6789;47.678;9.158;2023-03-07T20:48:19;5.80;99.90
13433;DHT22;6789;47.678;9.158;2023-03-07T20:53:24;5.80;99.90
13433;DHT22;6789;47.678;9.158;2023-03-07T20:58:31;5.80;99.90
13433;DHT22;6789;47.678;9.158;2023-03-07T21:03:37;5.70;99.90
13433;DHT22;6789;47.678;9.158;2023-03-07T21:08:32;5.70;99.90
13433;DHT22;6789;47.678;9.158;2023-03-07T21:13:41;5.70;99.90
13433;DHT22;6789;47.678;9.158;2023-03-07T21:18:48;5.70;99.90
13433;DHT22;6789;47.678;9.158;2023-03-07T21:23:54;5.60;99.90
13433;DHT22;6789;47.678;9.158;2023-03-07T21:29:32;5.70;99.90
13433;DHT22;6789;47.678;9.158;2023-03-07T21:34:28;5.60;99.90
13433;DHT22;6789;47.678;9.158;2023-03-07T21:39:35;5.70;99.90
13433;DHT22;6789;47.678;9.158;2023-03-07T21:44:28;5.70;99.90
13433;DHT22;6789;47.678;9.158;2023-03-07T21:49:34;5.60;99.90
13433;DHT22;6789;47.678;9.158;2023-03-07T21:54:40;5.70;99.90
13433;DHT22;6789;47.678;9.158;2023-03-07T21:59:46;5.60;99.90
13433;DHT22;6789;47.678;9.158;2023-03-07T22:04:52;5.60;99.90
13433;DHT22;6789;47.678;9.158;2023-03-07T22:09:58;5.60;99.90
13433;DHT22;6789;47.678;9.158;2023-03-07T22:15:04;5.50;99.90
13433;DHT22;6789;47.678;9.158;2023-03-07T22:20:13;5.50;99.90
13433;DHT22;6789;47.678;9.158;2023-03-07T22:25:19;5.50;99.90
13433;DHT22;6789;47.678;9.158;2023-03-07T22:30:25;5.50;99.90
13433;DHT22;6789;47.678;9.158;2023-03-07T22:35:31;5.40;99.90
13433;DHT22;6789;47.678;9.158;2023-03-07T22:40:37;5.40;99.90
13433;DHT22;6789;47.678;9.158;2023-03-07T22:45:48;5.40;99.90
13433;DHT22;6789;47.678;9.158;2023-03-07T22:50:55;5.40;99.90
13433;DHT22;6789;47.678;9.158;2023-03-07T22:56:01;5.40;99.90
13433;DHT22;6789;47.678;9.158;2023-03-07T23:00:55;5.40;99.90
13433;DHT22;6789;47.678;9.158;2023-03-07T23:06:01;5.40;99.90
13433;DHT22;6789;47.678;9.158;2023-03-07T23:11:08;5.40;99.90
13433;DHT22;6789;47.678;9.158;2023-03-07T23:16:19;5.40;99.90
13433;DHT22;6789;47.678;9.158;2023-03-07T23:21:33;5.30;99.90
13433;DHT22;6789;47.678;9.158;2023-03-07T23:26:40;5.40;99.90
13433;DHT22;6789;47.678;9.158;2023-03-07T23:32:15;5.40;99.90
13433;DHT22;6789;47.678;9.158;2023-03-07T23:37:21;5.40;99.90
13433;DHT22;6789;47.678;9.158;2023-03-07T23:42:27;5.40;99.90
13433;DHT22;6789;47.678;9.158;2023-03-07T23:47:33;5.30;99.90
13433;DHT22;6789;47.678;9.158;2023-03-07T23:52:39;5.30;99.90
13433;DHT22;6789;47.678;9.158;2023-03-07T23:57:36;5.20;99.90
